sensor_id;sensor_type;location;lat;lon;timestamp;temperature;humidity
65584;DHT22;62116;43.582;1.470;2023-04-15T10:09:30;14.84;56.98
65584;DHT22;62116;43.582;1.470;2023-04-15T10:11:56;14.33;59.76
65584;DHT22;62116;43.582;1.470;2023-04-15T10:14:22;13.99;61.20
65584;DHT22;62116;43.582;1.470;2023-04-15T10:16:49;13.75;61.91
65584;DHT22;62116;43.582;1.470;2023-04-15T10:19:17;13.64;61.79
65584;DHT22;62116;43.582;1.470;2023-04-15T10:21:45;13.57;61.84
65584;DHT22;62116;43.582;1.470;2023-04-15T10:24:11;13.64;61.40
65584;DHT22;62116;43.582;1.470;2023-04-15T10:26:37;13.54;61.58
65584;DHT22;62116;43.582;1.470;2023-04-15T10:29:03;13.55;60.01
65584;DHT22;62116;43.582;1.470;2023-04-15T10:31:29;13.53;60.50
65584;DHT22;62116;43.582;1.470;2023-04-15T10:33:55;13.55;62.26
65584;DHT22;62116;43.582;1.470;2023-04-15T10:36:21;13.65;61.73
65584;DHT22;62116;43.582;1.470;2023-04-15T10:38:47;13.74;61.32
65584;DHT22;62116;43.582;1.470;2023-04-15T10:43:54;13.64;59.08
65584;DHT22;62116;43.582;1.470;2023-04-15T10:46:41;13.61;60.38
65584;DHT22;62116;43.582;1.470;2023-04-15T10:49:16;13.78;60.02
65584;DHT22;62116;43.582;1.470;2023-04-15T10:51:44;13.88;59.79
65584;DHT22;62116;43.582;1.470;2023-04-15T10:54:31;13.98;59.03
65584;DHT22;62116;43.582;1.470;2023-04-15T10:59:28;13.98;59.22
65584;DHT22;62116;43.582;1.470;2023-04-15T11:01:56;14.08;58.66
65584;DHT22;62116;43.582;1.470;2023-04-15T11:04:55;13.94;61.07
65584;DHT22;62116;43.582;1.470;2023-04-15T11:07:38;13.85;59.40
65584;DHT22;62116;43.582;1.470;2023-04-15T11:13:03;13.79;59.17
65584;DHT22;62116;43.582;1.470;2023-04-15T11:18:20;13.89;59.34
65584;DHT22;62116;43.582;1.470;2023-04-15T11:20:54;14.02;59.95
65584;DHT22;62116;43.582;1.470;2023-04-15T11:25:54;13.86;58.07
65584;DHT22;62116;43.582;1.470;2023-04-15T11:28:20;13.82;59.27
65584;DHT22;62116;43.582;1.470;2023-04-15T11:30:45;13.69;56.43
65584;DHT22;62116;43.582;1.470;2023-04-15T11:33:11;13.81;56.33
65584;DHT22;62116;43.582;1.470;2023-04-15T11:35:40;13.97;57.95
65584;DHT22;62116;43.582;1.470;2023-04-15T11:38:08;14.09;55.68
65584;DHT22;62116;43.582;1.470;2023-04-15T11:40:34;14.25;56.02
65584;DHT22;62116;43.582;1.470;2023-04-15T11:45:28;14.57;54.75
65584;DHT22;62116;43.582;1.470;2023-04-15T11:47:53;14.64;55.03
65584;DHT22;62116;43.582;1.470;2023-04-15T11:50:19;14.62;52.77
65584;DHT22;62116;43.582;1.470;2023-04-15T11:52:56;14.60;52.58
65584;DHT22;62116;43.582;1.470;2023-04-15T11:55:23;14.63;53.48
65584;DHT22;62116;43.582;1.470;2023-04-15T12:00:33;14.50;54.52
65584;DHT22;62116;43.582;1.470;2023-04-15T12:03:41;14.39;55.29
65584;DHT22;62116;43.582;1.470;2023-04-15T12:06:21;14.63;54.57
65584;DHT22;62116;43.582;1.470;2023-04-15T12:11:44;14.57;51.18
65584;DHT22;62116;43.582;1.470;2023-04-15T12:14:25;14.57;49.75
65584;DHT22;62116;43.582;1.470;2023-04-15T12:16:55;14.56;50.69
65584;DHT22;62116;43.582;1.470;2023-04-15T12:19:38;14.59;51.79
65584;DHT22;62116;43.582;1.470;2023-04-15T12:22:08;14.59;53.03
65584;DHT22;62116;43.582;1.470;2023-04-15T12:24:35;14.70;53.04
65584;DHT22;62116;43.582;1.470;2023-04-15T12:27:08;14.91;51.09
65584;DHT22;62116;43.582;1.470;2023-04-15T12:29:36;14.90;51.07
65584;DHT22;62116;43.582;1.470;2023-04-15T12:32:12;14.87;49.62
65584;DHT22;62116;43.582;1.470;2023-04-15T12:34:39;15.04;51.55
65584;DHT22;62116;43.582;1.470;2023-04-15T12:37:10;14.91;51.11
65584;DHT22;62116;43.582;1.470;2023-04-15T12:39:40;15.01;50.97
65584;DHT22;62116;43.582;1.470;2023-04-15T12:42:07;15.14;51.44
65584;DHT22;62116;43.582;1.470;2023-04-15T12:44:33;15.28;51.59
65584;DHT22;62116;43.582;1.470;2023-04-15T12:46:59;15.05;51.23
65584;DHT22;62116;43.582;1.470;2023-04-15T12:49:24;15.17;52.43
65584;DHT22;62116;43.582;1.470;2023-04-15T12:51:56;15.32;50.93
65584;DHT22;62116;43.582;1.470;2023-04-15T12:54:21;15.31;49.21
65584;DHT22;62116;43.582;1.470;2023-04-15T12:56:48;15.25;49.48
65584;DHT22;62116;43.582;1.470;2023-04-15T12:59:14;15.20;49.69
65584;DHT22;62116;43.582;1.470;2023-04-15T13:01:41;15.25;51.89
65584;DHT22;62116;43.582;1.470;2023-04-15T13:04:06;15.54;50.68
65584;DHT22;62116;43.582;1.470;2023-04-15T13:06:32;15.52;48.21
65584;DHT22;62116;43.582;1.470;2023-04-15T13:08:58;15.55;46.43
65584;DHT22;62116;43.582;1.470;2023-04-15T13:11:25;15.69;46.31
65584;DHT22;62116;43.582;1.470;2023-04-15T13:13:51;15.81;47.10
65584;DHT22;62116;43.582;1.470;2023-04-15T13:16:17;15.95;46.31
65584;DHT22;62116;43.582;1.470;2023-04-15T13:18:43;15.72;45.91
65584;DHT22;62116;43.582;1.470;2023-04-15T13:21:09;15.58;47.22
65584;DHT22;62116;43.582;1.470;2023-04-15T13:23:35;15.21;47.56
65584;DHT22;62116;43.582;1.470;2023-04-15T13:26:01;15.04;48.04
65584;DHT22;62116;43.582;1.470;2023-04-15T13:28:26;14.98;47.97
65584;DHT22;62116;43.582;1.470;2023-04-15T13:30:51;15.11;47.58
65584;DHT22;62116;43.582;1.470;2023-04-15T13:33:17;15.39;47.70
65584;DHT22;62116;43.582;1.470;2023-04-15T13:35:42;15.79;46.94
65584;DHT22;62116;43.582;1.470;2023-04-15T13:38:08;15.99;44.50
65584;DHT22;62116;43.582;1.470;2023-04-15T13:40:33;16.09;44.44
65584;DHT22;62116;43.582;1.470;2023-04-15T13:42:59;16.03;43.77
65584;DHT22;62116;43.582;1.470;2023-04-15T13:45:25;16.02;43.17
65584;DHT22;62116;43.582;1.470;2023-04-15T13:47:50;15.99;44.34
65584;DHT22;62116;43.582;1.470;2023-04-15T13:50:16;15.78;45.15
65584;DHT22;62116;43.582;1.470;2023-04-15T13:52:41;15.78;44.78
65584;DHT22;62116;43.582;1.470;2023-04-15T13:55:07;16.10;46.70
65584;DHT22;62116;43.582;1.470;2023-04-15T13:57:35;16.09;45.61
65584;DHT22;62116;43.582;1.470;2023-04-15T14:00:01;16.27;45.53
65584;DHT22;62116;43.582;1.470;2023-04-15T14:02:28;16.32;41.65
65584;DHT22;62116;43.582;1.470;2023-04-15T14:04:54;16.43;42.06
65584;DHT22;62116;43.582;1.470;2023-04-15T14:07:19;16.53;40.90
65584;DHT22;62116;43.582;1.470;2023-04-15T14:09:45;16.50;42.79
65584;DHT22;62116;43.582;1.470;2023-04-15T14:12:12;16.32;43.11
65584;DHT22;62116;43.582;1.470;2023-04-15T14:14:37;16.30;43.61
65584;DHT22;62116;43.582;1.470;2023-04-15T14:17:03;16.10;44.31
65584;DHT22;62116;43.582;1.470;2023-04-15T14:19:30;16.01;44.08
65584;DHT22;62116;43.582;1.470;2023-04-15T14:21:56;15.79;44.76
65584;DHT22;62116;43.582;1.470;2023-04-15T14:24:21;15.89;46.28
65584;DHT22;62116;43.582;1.470;2023-04-15T14:26:47;16.17;45.83
65584;DHT22;62116;43.582;1.470;2023-04-15T14:29:12;16.36;43.31
65584;DHT22;62116;43.582;1.470;2023-04-15T14:31:38;16.71;43.86
65584;DHT22;62116;43.582;1.470;2023-04-15T14:34:03;16.59;44.16
65584;DHT22;62116;43.582;1.470;2023-04-15T14:36:29;16.39;43.48
65584;DHT22;62116;43.582;1.470;2023-04-15T14:38:56;16.56;45.17
65584;DHT22;62116;43.582;1.470;2023-04-15T14:41:21;16.61;43.82
65584;DHT22;62116;43.582;1.470;2023-04-15T14:43:47;16.63;43.28
65584;DHT22;62116;43.582;1.470;2023-04-15T14:46:13;16.70;44.56
65584;DHT22;62116;43.582;1.470;2023-04-15T14:48:38;16.24;42.66
65584;DHT22;62116;43.582;1.470;2023-04-15T14:51:04;16.17;43.53
65584;DHT22;62116;43.582;1.470;2023-04-15T14:53:29;16.46;42.36
65584;DHT22;62116;43.582;1.470;2023-04-15T14:55:55;16.37;42.10
65584;DHT22;62116;43.582;1.470;2023-04-15T14:58:20;16.24;42.36
65584;DHT22;62116;43.582;1.470;2023-04-15T15:00:46;16.02;42.95
65584;DHT22;62116;43.582;1.470;2023-04-15T15:03:12;15.98;43.70
65584;DHT22;62116;43.582;1.470;2023-04-15T15:05:42;15.81;45.01
65584;DHT22;62116;43.582;1.470;2023-04-15T15:08:08;15.69;44.10
65584;DHT22;62116;43.582;1.470;2023-04-15T15:10:34;15.49;45.80
65584;DHT22;62116;43.582;1.470;2023-04-15T15:13:04;15.49;45.79
65584;DHT22;62116;43.582;1.470;2023-04-15T15:15:30;15.41;45.79
65584;DHT22;62116;43.582;1.470;2023-04-15T15:17:56;15.25;45.39
65584;DHT22;62116;43.582;1.470;2023-04-15T15:20:21;15.20;45.87
65584;DHT22;62116;43.582;1.470;2023-04-15T15:22:47;15.23;47.22
65584;DHT22;62116;43.582;1.470;2023-04-15T15:25:13;15.25;46.68
65584;DHT22;62116;43.582;1.470;2023-04-15T15:27:38;15.34;46.90
65584;DHT22;62116;43.582;1.470;2023-04-15T15:30:04;15.21;46.36
65584;DHT22;62116;43.582;1.470;2023-04-15T15:32:30;15.12;47.17
65584;DHT22;62116;43.582;1.470;2023-04-15T15:34:56;15.01;48.03
65584;DHT22;62116;43.582;1.470;2023-04-15T15:37:21;15.08;48.25
65584;DHT22;62116;43.582;1.470;2023-04-15T15:39:47;15.23;48.32
65584;DHT22;62116;43.582;1.470;2023-04-15T15:42:12;15.23;47.99
65584;DHT22;62116;43.582;1.470;2023-04-15T15:44:38;15.14;48.29
65584;DHT22;62116;43.582;1.470;2023-04-15T15:47:04;15.25;48.28
65584;DHT22;62116;43.582;1.470;2023-04-15T15:49:29;15.34;47.38
65584;DHT22;62116;43.582;1.470;2023-04-15T15:51:55;15.32;47.61
65584;DHT22;62116;43.582;1.470;2023-04-15T15:54:21;15.49;46.62
65584;DHT22;62116;43.582;1.470;2023-04-15T15:56:47;15.49;46.34
65584;DHT22;62116;43.582;1.470;2023-04-15T15:59:12;15.57;46.37
65584;DHT22;62116;43.582;1.470;2023-04-15T16:01:38;15.63;46.59
65584;DHT22;62116;43.582;1.470;2023-04-15T16:04:03;15.78;47.32
65584;DHT22;62116;43.582;1.470;2023-04-15T16:06:29;15.73;46.69
65584;DHT22;62116;43.582;1.470;2023-04-15T16:08:55;15.65;47.36
65584;DHT22;62116;43.582;1.470;2023-04-15T16:11:21;15.73;46.69
65584;DHT22;62116;43.582;1.470;2023-04-15T16:13:47;15.57;46.39
65584;DHT22;62116;43.582;1.470;2023-04-15T16:16:12;15.49;47.10
65584;DHT22;62116;43.582;1.470;2023-04-15T16:18:38;15.47;46.91
65584;DHT22;62116;43.582;1.470;2023-04-15T16:21:04;15.41;46.93
65584;DHT22;62116;43.582;1.470;2023-04-15T16:23:29;15.48;45.99
65584;DHT22;62116;43.582;1.470;2023-04-15T16:25:55;15.47;46.29
65584;DHT22;62116;43.582;1.470;2023-04-15T16:28:21;15.44;47.30
65584;DHT22;62116;43.582;1.470;2023-04-15T16:30:47;15.39;48.26
65584;DHT22;62116;43.582;1.470;2023-04-15T16:33:12;15.38;47.22
65584;DHT22;62116;43.582;1.470;2023-04-15T16:35:38;15.41;46.85
65584;DHT22;62116;43.582;1.470;2023-04-15T16:38:03;15.39;47.15
65584;DHT22;62116;43.582;1.470;2023-04-15T16:40:29;15.35;46.43
65584;DHT22;62116;43.582;1.470;2023-04-15T16:42:54;15.39;47.79
65584;DHT22;62116;43.582;1.470;2023-04-15T16:45:20;15.37;46.79
65584;DHT22;62116;43.582;1.470;2023-04-15T16:47:45;15.38;48.09
65584;DHT22;62116;43.582;1.470;2023-04-15T16:50:11;15.48;47.93
65584;DHT22;62116;43.582;1.470;2023-04-15T16:52:36;15.48;47.76
65584;DHT22;62116;43.582;1.470;2023-04-15T16:55:02;15.47;47.25
65584;DHT22;62116;43.582;1.470;2023-04-15T16:57:29;15.49;47.73
65584;DHT22;62116;43.582;1.470;2023-04-15T16:59:54;15.37;47.17
65584;DHT22;62116;43.582;1.470;2023-04-15T17:02:20;15.32;47.61
65584;DHT22;62116;43.582;1.470;2023-04-15T17:04:45;15.18;48.25
65584;DHT22;62116;43.582;1.470;2023-04-15T17:07:10;15.10;49.04
65584;DHT22;62116;43.582;1.470;2023-04-15T17:09:38;15.11;48.98
65584;DHT22;62116;43.582;1.470;2023-04-15T17:12:04;15.20;48.50
65584;DHT22;62116;43.582;1.470;2023-04-15T17:14:31;15.07;49.98
65584;DHT22;62116;43.582;1.470;2023-04-15T17:16:56;15.08;48.87
65584;DHT22;62116;43.582;1.470;2023-04-15T17:19:22;15.03;50.11
65584;DHT22;62116;43.582;1.470;2023-04-15T17:21:47;14.90;50.25
65584;DHT22;62116;43.582;1.470;2023-04-15T17:24:13;14.91;50.35
65584;DHT22;62116;43.582;1.470;2023-04-15T17:26:38;14.87;50.00
65584;DHT22;62116;43.582;1.470;2023-04-15T17:29:04;14.84;50.54
65584;DHT22;62116;43.582;1.470;2023-04-15T17:31:29;14.80;50.70
65584;DHT22;62116;43.582;1.470;2023-04-15T17:33:55;14.70;49.07
65584;DHT22;62116;43.582;1.470;2023-04-15T17:36:24;14.64;49.31
65584;DHT22;62116;43.582;1.470;2023-04-15T17:38:51;14.64;49.72
65584;DHT22;62116;43.582;1.470;2023-04-15T17:41:16;14.66;49.29
65584;DHT22;62116;43.582;1.470;2023-04-15T17:43:42;14.60;49.62
65584;DHT22;62116;43.582;1.470;2023-04-15T17:46:07;14.57;49.89
65584;DHT22;62116;43.582;1.470;2023-04-15T17:48:33;14.55;49.21
65584;DHT22;62116;43.582;1.470;2023-04-15T17:50:59;14.50;49.52
65584;DHT22;62116;43.582;1.470;2023-04-15T17:53:24;14.43;49.79
65584;DHT22;62116;43.582;1.470;2023-04-15T17:55:50;14.43;50.05
65584;DHT22;62116;43.582;1.470;2023-04-15T17:58:20;14.42;50.27
65584;DHT22;62116;43.582;1.470;2023-04-15T18:00:45;14.40;50.41
65584;DHT22;62116;43.582;1.470;2023-04-15T18:03:11;14.36;50.39
65584;DHT22;62116;43.582;1.470;2023-04-15T18:05:36;14.37;49.74
65584;DHT22;62116;43.582;1.470;2023-04-15T18:08:02;14.36;50.91
65584;DHT22;62116;43.582;1.470;2023-04-15T18:10:28;14.29;50.56
65584;DHT22;62116;43.582;1.470;2023-04-15T18:12:53;14.29;51.11
65584;DHT22;62116;43.582;1.470;2023-04-15T18:15:18;14.29;51.15
65584;DHT22;62116;43.582;1.470;2023-04-15T18:17:44;14.28;51.84
65584;DHT22;62116;43.582;1.470;2023-04-15T18:20:10;14.29;52.23
65584;DHT22;62116;43.582;1.470;2023-04-15T18:22:35;14.30;51.82
65584;DHT22;62116;43.582;1.470;2023-04-15T18:25:01;14.22;50.93
65584;DHT22;62116;43.582;1.470;2023-04-15T18:27:30;14.13;50.71
65584;DHT22;62116;43.582;1.470;2023-04-15T18:29:56;14.10;51.73
65584;DHT22;62116;43.582;1.470;2023-04-15T18:32:21;14.06;51.85
65584;DHT22;62116;43.582;1.470;2023-04-15T18:34:47;13.98;52.09
65584;DHT22;62116;43.582;1.470;2023-04-15T18:37:12;13.99;51.47
65584;DHT22;62116;43.582;1.470;2023-04-15T18:39:38;13.92;52.05
65584;DHT22;62116;43.582;1.470;2023-04-15T18:42:03;13.94;52.46
65584;DHT22;62116;43.582;1.470;2023-04-15T18:44:31;13.82;53.34
65584;DHT22;62116;43.582;1.470;2023-04-15T18:46:57;13.79;53.94
65584;DHT22;62116;43.582;1.470;2023-04-15T18:49:22;13.81;54.49
65584;DHT22;62116;43.582;1.470;2023-04-15T18:51:48;13.78;55.01
65584;DHT22;62116;43.582;1.470;2023-04-15T18:54:13;13.74;54.84
65584;DHT22;62116;43.582;1.470;2023-04-15T18:56:39;13.69;54.18
65584;DHT22;62116;43.582;1.470;2023-04-15T18:59:04;13.64;53.99
65584;DHT22;62116;43.582;1.470;2023-04-15T19:01:30;13.62;54.17
65584;DHT22;62116;43.582;1.470;2023-04-15T19:03:56;13.62;53.66
65584;DHT22;62116;43.582;1.470;2023-04-15T19:06:21;13.62;54.65
65584;DHT22;62116;43.582;1.470;2023-04-15T19:08:47;13.61;53.90
65584;DHT22;62116;43.582;1.470;2023-04-15T19:11:13;13.62;54.33
65584;DHT22;62116;43.582;1.470;2023-04-15T19:13:38;13.64;53.94
65584;DHT22;62116;43.582;1.470;2023-04-15T19:16:04;13.62;53.44
65584;DHT22;62116;43.582;1.470;2023-04-15T19:18:29;13.58;54.20
65584;DHT22;62116;43.582;1.470;2023-04-15T19:20:55;13.57;54.94
65584;DHT22;62116;43.582;1.470;2023-04-15T19:23:22;13.57;54.94
65584;DHT22;62116;43.582;1.470;2023-04-15T19:25:47;13.55;54.18
65584;DHT22;62116;43.582;1.470;2023-04-15T19:28:16;13.48;53.33
65584;DHT22;62116;43.582;1.470;2023-04-15T19:30:41;13.47;53.10
65584;DHT22;62116;43.582;1.470;2023-04-15T19:33:07;13.44;52.94
65584;DHT22;62116;43.582;1.470;2023-04-15T19:35:32;13.37;53.24
65584;DHT22;62116;43.582;1.470;2023-04-15T19:37:57;13.38;52.89
65584;DHT22;62116;43.582;1.470;2023-04-15T19:40:23;13.37;53.22
65584;DHT22;62116;43.582;1.470;2023-04-15T19:42:48;13.28;52.92
65584;DHT22;62116;43.582;1.470;2023-04-15T19:45:14;13.33;54.38
65584;DHT22;62116;43.582;1.470;2023-04-15T19:47:40;13.31;54.49
65584;DHT22;62116;43.582;1.470;2023-04-15T19:50:05;13.28;54.70
65584;DHT22;62116;43.582;1.470;2023-04-15T19:52:32;13.25;54.64
65584;DHT22;62116;43.582;1.470;2023-04-15T19:54:58;13.21;54.25
65584;DHT22;62116;43.582;1.470;2023-04-15T19:57:23;13.17;54.76
65584;DHT22;62116;43.582;1.470;2023-04-15T19:59:49;13.15;56.15
65584;DHT22;62116;43.582;1.470;2023-04-15T20:02:14;13.14;55.52
65584;DHT22;62116;43.582;1.470;2023-04-15T20:04:40;13.08;56.23
65584;DHT22;62116;43.582;1.470;2023-04-15T20:07:05;13.04;55.95
65584;DHT22;62116;43.582;1.470;2023-04-15T20:09:34;13.01;55.64
65584;DHT22;62116;43.582;1.470;2023-04-15T20:11:59;13.03;56.82
65584;DHT22;62116;43.582;1.470;2023-04-15T20:14:25;13.00;57.58
65584;DHT22;62116;43.582;1.470;2023-04-15T20:16:50;13.00;56.60
65584;DHT22;62116;43.582;1.470;2023-04-15T20:19:16;12.96;56.85
65584;DHT22;62116;43.582;1.470;2023-04-15T20:21:41;12.94;56.55
65584;DHT22;62116;43.582;1.470;2023-04-15T20:24:06;12.89;57.88
65584;DHT22;62116;43.582;1.470;2023-04-15T20:26:32;12.89;57.74
65584;DHT22;62116;43.582;1.470;2023-04-15T20:28:58;12.83;57.97
65584;DHT22;62116;43.582;1.470;2023-04-15T20:31:24;12.76;58.39
65584;DHT22;62116;43.582;1.470;2023-04-15T20:33:49;12.77;58.16
65584;DHT22;62116;43.582;1.470;2023-04-15T20:36:15;12.73;57.80
65584;DHT22;62116;43.582;1.470;2023-04-15T20:38:40;12.69;58.13
65584;DHT22;62116;43.582;1.470;2023-04-15T20:41:05;12.70;58.38
65584;DHT22;62116;43.582;1.470;2023-04-15T20:43:31;12.63;58.90
65584;DHT22;62116;43.582;1.470;2023-04-15T20:45:57;12.61;58.70
65584;DHT22;62116;43.582;1.470;2023-04-15T20:48:22;12.59;59.31
65584;DHT22;62116;43.582;1.470;2023-04-15T20:50:49;12.60;59.12
65584;DHT22;62116;43.582;1.470;2023-04-15T20:53:14;12.59;59.72
65584;DHT22;62116;43.582;1.470;2023-04-15T20:55:40;12.57;59.54
65584;DHT22;62116;43.582;1.470;2023-04-15T20:58:07;12.53;60.46
65584;DHT22;62116;43.582;1.470;2023-04-15T21:00:33;12.50;60.23
65584;DHT22;62116;43.582;1.470;2023-04-15T21:02:58;12.50;60.46
65584;DHT22;62116;43.582;1.470;2023-04-15T21:05:23;12.43;60.76
65584;DHT22;62116;43.582;1.470;2023-04-15T21:07:49;12.39;60.93
65584;DHT22;62116;43.582;1.470;2023-04-15T21:10:14;12.35;61.58
65584;DHT22;62116;43.582;1.470;2023-04-15T21:12:40;12.30;61.36
65584;DHT22;62116;43.582;1.470;2023-04-15T21:15:07;12.24;61.30
65584;DHT22;62116;43.582;1.470;2023-04-15T21:17:32;12.22;62.19
65584;DHT22;62116;43.582;1.470;2023-04-15T21:19:59;12.14;61.73
65584;DHT22;62116;43.582;1.470;2023-04-15T21:22:25;12.15;61.89
65584;DHT22;62116;43.582;1.470;2023-04-15T21:24:50;12.08;62.00
65584;DHT22;62116;43.582;1.470;2023-04-15T21:27:16;11.99;62.27
65584;DHT22;62116;43.582;1.470;2023-04-15T21:29:41;12.01;62.06
65584;DHT22;62116;43.582;1.470;2023-04-15T21:32:06;11.98;61.92
65584;DHT22;62116;43.582;1.470;2023-04-15T21:34:32;11.94;62.26
65584;DHT22;62116;43.582;1.470;2023-04-15T21:36:57;11.94;62.50
65584;DHT22;62116;43.582;1.470;2023-04-15T21:39:22;11.92;63.11
65584;DHT22;62116;43.582;1.470;2023-04-15T21:41:48;11.91;62.86
65584;DHT22;62116;43.582;1.470;2023-04-15T21:44:14;11.85;62.68
65584;DHT22;62116;43.582;1.470;2023-04-15T21:46:39;11.78;63.12
65584;DHT22;62116;43.582;1.470;2023-04-15T21:49:05;11.72;62.96
65584;DHT22;62116;43.582;1.470;2023-04-15T21:51:31;11.68;62.76
65584;DHT22;62116;43.582;1.470;2023-04-15T21:53:57;11.68;63.03
65584;DHT22;62116;43.582;1.470;2023-04-15T21:56:24;11.62;63.08
65584;DHT22;62116;43.582;1.470;2023-04-15T21:58:54;11.60;63.30
65584;DHT22;62116;43.582;1.470;2023-04-15T22:01:21;11.61;63.55
65584;DHT22;62116;43.582;1.470;2023-04-15T22:03:46;11.58;62.72
65584;DHT22;62116;43.582;1.470;2023-04-15T22:06:11;11.47;62.65
65584;DHT22;62116;43.582;1.470;2023-04-15T22:08:38;11.42;63.45
65584;DHT22;62116;43.582;1.470;2023-04-15T22:11:03;11.40;62.85
65584;DHT22;62116;43.582;1.470;2023-04-15T22:13:28;11.42;63.52
65584;DHT22;62116;43.582;1.470;2023-04-15T22:15:54;11.40;63.38
65584;DHT22;62116;43.582;1.470;2023-04-15T22:18:19;11.37;62.57
65584;DHT22;62116;43.582;1.470;2023-04-15T22:20:45;11.30;63.12
65584;DHT22;62116;43.582;1.470;2023-04-15T22:23:10;11.27;63.50
65584;DHT22;62116;43.582;1.470;2023-04-15T22:25:36;11.30;63.14
65584;DHT22;62116;43.582;1.470;2023-04-15T22:28:05;11.24;63.49
65584;DHT22;62116;43.582;1.470;2023-04-15T22:30:36;11.21;63.29
65584;DHT22;62116;43.582;1.470;2023-04-15T22:33:02;11.24;63.91
65584;DHT22;62116;43.582;1.470;2023-04-15T22:35:27;11.24;63.73
65584;DHT22;62116;43.582;1.470;2023-04-15T22:37:52;11.28;64.28
65584;DHT22;62116;43.582;1.470;2023-04-15T22:40:18;11.26;64.30
65584;DHT22;62116;43.582;1.470;2023-04-15T22:42:44;11.27;64.54
65584;DHT22;62116;43.582;1.470;2023-04-15T22:45:10;11.26;64.57
65584;DHT22;62116;43.582;1.470;2023-04-15T22:47:35;11.26;65.41
65584;DHT22;62116;43.582;1.470;2023-04-15T22:50:01;11.20;64.33
65584;DHT22;62116;43.582;1.470;2023-04-15T22:52:26;11.13;65.25
65584;DHT22;62116;43.582;1.470;2023-04-15T22:54:52;11.10;65.80
65584;DHT22;62116;43.582;1.470;2023-04-15T22:57:17;11.10;64.96
65584;DHT22;62116;43.582;1.470;2023-04-15T22:59:42;11.01;65.41
65584;DHT22;62116;43.582;1.470;2023-04-15T23:02:08;11.03;65.79
65584;DHT22;62116;43.582;1.470;2023-04-15T23:04:33;11.03;65.78
65584;DHT22;62116;43.582;1.470;2023-04-15T23:06:59;11.01;65.68
65584;DHT22;62116;43.582;1.470;2023-04-15T23:09:24;11.01;66.18
65584;DHT22;62116;43.582;1.470;2023-04-15T23:11:50;10.97;66.14
65584;DHT22;62116;43.582;1.470;2023-04-15T23:14:15;10.95;66.88
65584;DHT22;62116;43.582;1.470;2023-04-15T23:16:41;10.89;66.79
65584;DHT22;62116;43.582;1.470;2023-04-15T23:19:06;10.86;66.12
65584;DHT22;62116;43.582;1.470;2023-04-15T23:21:32;10.87;66.70
65584;DHT22;62116;43.582;1.470;2023-04-15T23:23:57;10.86;66.63
65584;DHT22;62116;43.582;1.470;2023-04-15T23:26:22;10.89;66.44
65584;DHT22;62116;43.582;1.470;2023-04-15T23:28:48;10.86;66.76
65584;DHT22;62116;43.582;1.470;2023-04-15T23:31:13;10.87;66.63
65584;DHT22;62116;43.582;1.470;2023-04-15T23:33:39;10.83;66.07
65584;DHT22;62116;43.582;1.470;2023-04-15T23:36:04;10.79;66.73
65584;DHT22;62116;43.582;1.470;2023-04-15T23:38:30;10.76;67.23
65584;DHT22;62116;43.582;1.470;2023-04-15T23:40:55;10.86;66.56
65584;DHT22;62116;43.582;1.470;2023-04-15T23:43:21;10.90;66.57
65584;DHT22;62116;43.582;1.470;2023-04-15T23:45:46;10.87;66.75
65584;DHT22;62116;43.582;1.470;2023-04-15T23:48:12;10.79;67.24
65584;DHT22;62116;43.582;1.470;2023-04-15T23:50:37;10.86;67.07
65584;DHT22;62116;43.582;1.470;2023-04-15T23:53:02;10.80;67.66
65584;DHT22;62116;43.582;1.470;2023-04-15T23:55:28;10.76;68.14
65584;DHT22;62116;43.582;1.470;2023-04-15T23:57:54;10.70;67.74
